Cresthill, Illinois
Current Conditions -  °F | °C
As of 1:15 AM on Sunday 26 Oct 2014 (Local Time) from KLOT Reporting Station
Clear Clear  
Wind Chill: 39°   Ceiling: Unl
Heat Index: 43°   Visibility: 10mi
Dew Point: 33°   Wind: 7mph
Humidity: 67%   Direction: 300°WNW
Pressure: 30"   Gusts: NA
Location:  41.6°N, 88.12°W
Report Text: KLOT 260615Z AUTO 30006KT 10SM CLR 06/00 A3000 RMK AO2 T00620004
Loading
Personal Weather Stations






























Interactive Weather Map
Tropical Storm Tracking
New forecast layout! Learn more

10-Day Weather Forecast

Advertisements
Track Severe Weather on mobile